createdAt,value
2019-04-10T00:00:09.319Z,74.77
2019-04-10T00:02:37.798Z,75.15
2019-04-10T00:05:07.621Z,75.50
2019-04-10T00:07:36.059Z,74.78
2019-04-10T00:10:05.661Z,76.14
2019-04-10T00:12:34.339Z,76.28
2019-04-10T00:15:03.156Z,76.38
2019-04-10T00:17:31.647Z,77.71
2019-04-10T00:20:00.129Z,79.89
2019-04-10T00:22:28.587Z,78.70
2019-04-10T00:24:57.019Z,79.12
2019-04-10T00:27:26.263Z,79.81
2019-04-10T00:29:54.780Z,81.97
2019-04-10T00:32:23.746Z,80.50
2019-04-10T00:34:52.542Z,81.14
2019-04-10T00:37:26.830Z,81.44
2019-04-10T00:39:51.183Z,82.19
2019-04-10T00:42:19.698Z,83.41
2019-04-10T00:44:48.159Z,84.96
2019-04-10T00:47:17.038Z,85.08
2019-04-10T00:49:46.142Z,85.00
2019-04-10T00:52:14.804Z,86.45
2019-04-10T00:54:43.460Z,88.05
2019-04-10T00:57:12.829Z,88.42
2019-04-10T00:59:42.165Z,88.64
2019-04-10T01:02:10.762Z,88.71
2019-04-10T01:04:39.345Z,88.86
2019-04-10T01:07:08.637Z,88.70
2019-04-10T01:09:37.523Z,89.23
2019-04-10T01:12:06.227Z,90.23
2019-04-10T01:14:34.664Z,89.30
2019-04-10T01:17:04.070Z,90.72
2019-04-10T01:19:32.669Z,91.32
2019-04-10T01:22:01.203Z,91.70
2019-04-10T01:24:29.997Z,92.47
2019-04-10T01:26:59.288Z,93.21
2019-04-10T01:29:28.036Z,93.38
2019-04-10T01:31:56.575Z,93.86
2019-04-10T01:34:25.389Z,93.97
2019-04-10T01:36:54.582Z,94.57
2019-04-10T01:39:24.889Z,94.24
2019-04-10T01:41:54.380Z,93.89
2019-04-10T01:44:23.135Z,95.47
2019-04-10T01:46:52.838Z,95.69
2019-04-10T01:49:21.754Z,96.25
2019-04-10T01:51:50.403Z,95.95
2019-04-10T01:54:19.365Z,97.00
2019-04-10T01:56:48.037Z,97.17
2019-04-10T01:59:18.131Z,97.15
2019-04-10T02:01:48.699Z,97.86
2019-04-10T02:04:17.151Z,98.53
2019-04-10T02:06:45.662Z,99.67
2019-04-10T02:09:15.017Z,99.80
2019-04-10T02:11:43.553Z,99.27
2019-04-10T02:14:12.165Z,100.00
2019-04-10T02:16:41.121Z,100.00
2019-04-10T02:19:10.118Z,100.00
2019-04-10T02:21:38.721Z,100.00
2019-04-10T02:24:07.193Z,100.00
2019-04-10T02:26:36.017Z,100.00
2019-04-10T02:29:04.533Z,100.00
2019-04-10T02:31:34.511Z,100.00
2019-04-10T02:34:04.831Z,100.00
2019-04-10T02:36:34.427Z,100.00
2019-04-10T02:39:15.275Z,100.00
2019-04-10T02:41:36.441Z,100.00
2019-04-10T02:44:05.228Z,100.00
2019-04-10T02:46:33.699Z,100.00
2019-04-10T02:49:03.802Z,100.00
2019-04-10T02:51:32.592Z,100.00
2019-04-10T02:54:02.528Z,100.00
2019-04-10T02:56:32.645Z,100.00
2019-04-10T02:59:02.749Z,100.00
2019-04-10T03:01:31.656Z,100.00
2019-04-10T03:04:01.444Z,100.00
2019-04-10T03:06:31.170Z,100.00
2019-04-10T03:09:14.672Z,100.00
2019-04-10T03:11:31.262Z,100.00
2019-04-10T03:14:01.390Z,100.00
2019-04-10T03:16:31.159Z,100.00
2019-04-10T03:18:59.755Z,100.00
2019-04-10T03:21:29.244Z,100.00
2019-04-10T03:23:58.031Z,100.00
2019-04-10T03:26:27.814Z,100.00
2019-04-10T03:28:57.644Z,100.00
2019-04-10T03:31:27.752Z,100.00
2019-04-10T03:34:03.309Z,100.00
2019-04-10T03:36:36.310Z,100.00
2019-04-10T03:39:08.982Z,100.00
2019-04-10T03:41:37.997Z,100.00
2019-04-10T03:44:06.654Z,100.00
2019-04-10T03:46:45.057Z,100.00
2019-04-10T03:49:16.055Z,100.00
2019-04-10T03:51:45.012Z,100.00
2019-04-10T03:54:13.553Z,100.00
2019-04-10T03:56:42.544Z,100.00
2019-04-10T03:59:11.775Z,100.00
2019-04-10T04:01:40.948Z,100.00
2019-04-10T04:04:09.681Z,100.00
2019-04-10T04:06:38.159Z,100.00
2019-04-10T04:09:10.950Z,100.00
2019-04-10T04:11:37.851Z,100.00
2019-04-10T04:14:06.791Z,100.00
2019-04-10T04:16:35.330Z,100.00
2019-04-10T04:19:05.843Z,100.00
2019-04-10T04:21:35.949Z,100.00
2019-04-10T04:24:04.838Z,100.00
2019-04-10T04:26:33.369Z,100.00
2019-04-10T04:29:02.062Z,100.00
2019-04-10T04:31:31.203Z,100.00
2019-04-10T04:33:59.871Z,100.00
2019-04-10T04:36:28.702Z,100.00
2019-04-10T04:38:57.736Z,100.00
2019-04-10T04:41:27.369Z,100.00
2019-04-10T04:43:55.865Z,99.30
2019-04-10T04:46:24.368Z,100.00
2019-04-10T04:48:52.853Z,100.00
2019-04-10T04:51:21.965Z,98.75
2019-04-10T04:53:50.617Z,99.47
2019-04-10T04:56:19.948Z,100.00
2019-04-10T04:58:49.619Z,99.21
2019-04-10T05:01:19.000Z,97.75
2019-04-10T05:03:48.416Z,97.18
2019-04-10T05:06:18.122Z,95.71
2019-04-10T05:08:46.868Z,94.95
2019-04-10T05:11:15.353Z,95.89
2019-04-10T05:13:43.790Z,94.73
2019-04-10T05:16:12.376Z,92.66
2019-04-10T05:18:40.826Z,91.14
2019-04-10T05:21:09.309Z,91.58
2019-04-10T05:23:38.494Z,90.38
2019-04-10T05:26:08.146Z,91.74
2019-04-10T05:28:36.749Z,88.71
2019-04-10T05:31:05.210Z,87.83
2019-04-10T05:33:33.684Z,86.30
2019-04-10T05:36:02.241Z,85.48
2019-04-10T05:38:30.705Z,85.16
2019-04-10T05:41:01.334Z,87.99
2019-04-10T05:43:30.704Z,85.30
2019-04-10T05:45:59.348Z,83.25
2019-04-10T05:48:27.958Z,83.71
2019-04-10T05:51:02.998Z,79.53
2019-04-10T05:53:26.810Z,77.46
2019-04-10T05:55:55.879Z,76.28
2019-04-10T05:58:24.585Z,76.37
2019-04-10T06:00:53.438Z,76.32
2019-04-10T06:03:22.725Z,75.86
2019-04-10T06:05:51.299Z,75.52
2019-04-10T06:08:19.788Z,71.64
2019-04-10T06:10:48.254Z,71.46
2019-04-10T06:13:17.163Z,72.78
2019-04-10T06:15:45.861Z,70.96
2019-04-10T06:18:15.305Z,71.31
2019-04-10T06:20:45.167Z,70.61
2019-04-10T06:23:14.785Z,69.25
2019-04-10T06:25:43.735Z,69.80
2019-04-10T06:28:12.948Z,70.30
2019-04-10T06:30:41.910Z,70.46
2019-04-10T06:33:11.625Z,68.69
2019-04-10T06:35:40.185Z,69.54
2019-04-10T06:38:08.768Z,70.32
2019-04-10T06:40:37.682Z,69.29
2019-04-10T06:43:06.620Z,69.50
2019-04-10T06:45:35.769Z,67.35
2019-04-10T06:48:04.352Z,66.44
2019-04-10T06:50:32.926Z,65.15
2019-04-10T06:53:01.603Z,64.77
2019-04-10T06:55:30.289Z,62.89
2019-04-10T06:57:59.392Z,62.88
2019-04-10T07:00:28.614Z,65.88
2019-04-10T07:02:57.315Z,64.51
2019-04-10T07:05:36.980Z,63.82
2019-04-10T07:08:05.757Z,62.93
2019-04-10T07:10:33.609Z,62.37
2019-04-10T07:12:56.559Z,64.13
2019-04-10T07:15:25.655Z,63.18
2019-04-10T07:17:55.371Z,61.71
2019-04-10T07:20:24.170Z,61.17
2019-04-10T07:22:53.348Z,60.19
2019-04-10T07:25:22.017Z,60.36
2019-04-10T07:27:54.330Z,61.26
2019-04-10T07:30:26.254Z,61.40
2019-04-10T07:32:56.161Z,61.38
2019-04-10T07:35:25.663Z,61.15
2019-04-10T07:37:56.937Z,60.86
2019-04-10T07:40:24.936Z,61.13
2019-04-10T07:42:54.577Z,61.17
2019-04-10T07:45:26.433Z,60.76
2019-04-10T07:47:53.923Z,60.14
2019-04-10T07:50:22.650Z,60.44
2019-04-10T07:52:52.078Z,60.38
2019-04-10T07:55:21.106Z,58.85
2019-04-10T07:57:51.766Z,59.17
2019-04-10T08:00:20.777Z,59.24
2019-04-10T08:02:49.280Z,59.49
2019-04-10T08:05:18.771Z,56.65
2019-04-10T08:07:47.400Z,56.99
2019-04-10T08:10:15.939Z,57.89
2019-04-10T08:12:50.042Z,56.05
2019-04-10T08:15:14.648Z,56.65
2019-04-10T08:17:44.453Z,53.30
2019-04-10T08:20:13.369Z,53.10
2019-04-10T08:22:42.728Z,54.15
2019-04-10T08:25:11.370Z,53.15
2019-04-10T08:27:39.823Z,51.66
2019-04-10T08:30:10.948Z,52.99
2019-04-10T08:32:50.934Z,52.29
2019-04-10T08:35:11.108Z,51.87
2019-04-10T08:37:40.977Z,51.93
2019-04-10T08:40:11.521Z,51.33
2019-04-10T08:42:40.696Z,48.94
2019-04-10T08:45:11.396Z,49.51
2019-04-10T08:47:40.117Z,49.85
2019-04-10T08:50:09.652Z,48.91
2019-04-10T08:52:39.059Z,48.24
2019-04-10T08:55:08.031Z,50.75
2019-04-10T08:57:36.490Z,50.70
2019-04-10T09:00:08.731Z,50.29
2019-04-10T09:02:38.113Z,49.97
2019-04-10T09:05:09.193Z,48.87
2019-04-10T09:07:38.224Z,48.60
2019-04-10T09:10:07.358Z,48.61
2019-04-10T09:12:35.897Z,48.04
2019-04-10T09:15:05.642Z,48.01
2019-04-10T09:17:34.191Z,49.77
2019-04-10T09:20:06.659Z,49.40
2019-04-10T09:22:55.171Z,47.71
2019-04-10T09:25:06.966Z,46.10
2019-04-10T09:27:35.962Z,46.59
2019-04-10T09:30:06.800Z,47.00
2019-04-10T09:32:35.271Z,47.52
2019-04-10T09:35:04.836Z,48.20
2019-04-10T09:37:34.394Z,48.26
2019-04-10T09:40:05.614Z,46.80
2019-04-10T09:42:35.214Z,45.41
2019-04-10T09:45:04.798Z,46.04
2019-04-10T09:47:34.672Z,45.14
2019-04-10T09:50:03.745Z,45.76
2019-04-10T09:52:32.184Z,46.57
2019-04-10T09:55:00.739Z,44.50
2019-04-10T09:57:29.264Z,45.69
2019-04-10T09:59:57.833Z,44.09
2019-04-10T10:02:27.467Z,45.13
2019-04-10T10:04:56.092Z,44.94
2019-04-10T10:07:24.543Z,43.38
2019-04-10T10:09:53.058Z,42.26
2019-04-10T10:12:21.517Z,42.71
2019-04-10T10:14:49.992Z,42.10
2019-04-10T10:17:18.439Z,41.72
2019-04-10T10:19:48.081Z,43.22
2019-04-10T10:22:16.895Z,44.12
2019-04-10T10:24:46.716Z,42.26
2019-04-10T10:27:15.682Z,41.24
2019-04-10T10:29:44.260Z,41.32
2019-04-10T10:32:12.933Z,40.59
2019-04-10T10:34:41.457Z,39.55
2019-04-10T10:37:12.516Z,38.47
2019-04-10T10:39:41.441Z,37.74
2019-04-10T10:42:09.899Z,36.97
2019-04-10T10:44:40.896Z,38.01
2019-04-10T10:47:09.563Z,38.22
2019-04-10T10:49:38.076Z,38.04
2019-04-10T10:52:09.055Z,38.71
2019-04-10T10:54:38.165Z,34.88
2019-04-10T10:57:07.038Z,36.62
2019-04-10T10:59:35.747Z,36.19
2019-04-10T11:02:04.833Z,36.36
2019-04-10T11:04:33.643Z,36.24
2019-04-10T11:07:02.660Z,36.19
2019-04-10T11:09:32.406Z,36.01
2019-04-10T11:12:01.719Z,33.46
2019-04-10T11:14:31.584Z,33.04
2019-04-10T11:17:01.384Z,32.47
2019-04-10T11:19:31.166Z,31.82
2019-04-10T11:22:00.984Z,32.93
2019-04-10T11:24:29.732Z,30.78
2019-04-10T11:26:58.188Z,31.20
2019-04-10T11:29:28.756Z,29.36
2019-04-10T11:31:58.005Z,28.52
2019-04-10T11:34:26.630Z,29.57
2019-04-10T11:37:16.880Z,29.14
2019-04-10T11:39:28.589Z,31.05
2019-04-10T11:41:57.724Z,31.17
2019-04-10T11:44:27.493Z,32.24
2019-04-10T11:46:57.245Z,33.07
2019-04-10T11:49:27.801Z,34.10
2019-04-10T11:51:59.971Z,34.53
2019-04-10T11:54:29.655Z,31.51
2019-04-10T11:56:58.726Z,29.01
2019-04-10T11:59:28.818Z,29.30
2019-04-10T12:04:30.824Z,33.28
2019-04-10T12:07:01.494Z,34.48
2019-04-10T12:10:49.459Z,35.15
2019-04-10T12:11:59.417Z,34.92
2019-04-10T12:14:28.011Z,34.44
2019-04-10T12:16:56.453Z,34.82
2019-04-10T12:19:25.250Z,29.38
2019-04-10T12:21:53.860Z,26.50
2019-04-10T12:24:22.389Z,26.51
2019-04-10T12:26:51.731Z,25.79
2019-04-10T12:29:20.453Z,25.72
2019-04-10T12:31:48.901Z,25.76
2019-04-10T12:34:18.233Z,26.62
2019-04-10T12:36:47.275Z,26.02
2019-04-10T12:39:16.228Z,25.89
2019-04-10T12:41:45.832Z,26.28
2019-04-10T12:44:14.464Z,24.83
2019-04-10T12:46:43.556Z,23.14
2019-04-10T12:49:12.218Z,22.46
2019-04-10T12:51:41.537Z,23.54
2019-04-10T12:54:10.149Z,29.31
2019-04-10T12:56:38.670Z,23.27
2019-04-10T12:59:07.274Z,25.96
2019-04-10T13:01:36.579Z,25.99
2019-04-10T13:04:05.454Z,29.08
2019-04-10T13:06:33.942Z,28.83
2019-04-10T13:09:09.234Z,24.34
2019-04-10T13:11:34.366Z,26.60
2019-04-10T13:14:03.236Z,30.14
2019-04-10T13:16:32.108Z,30.92
2019-04-10T13:19:00.871Z,30.44
2019-04-10T13:21:29.262Z,31.63
2019-04-10T13:23:57.808Z,33.26
2019-04-10T13:26:26.248Z,33.62
2019-04-10T13:28:54.746Z,34.46
2019-04-10T13:31:23.515Z,31.89
2019-04-10T13:33:53.044Z,24.57
2019-04-10T13:36:21.812Z,22.22
2019-04-10T13:38:50.653Z,22.36
2019-04-10T13:41:19.115Z,25.55
2019-04-10T13:43:47.591Z,30.68
2019-04-10T13:46:16.415Z,32.90
2019-04-10T13:48:45.216Z,32.91
2019-04-10T13:51:14.964Z,32.40
2019-04-10T13:53:43.568Z,24.92
2019-04-10T13:56:12.845Z,23.79
2019-04-10T13:58:42.613Z,21.94
2019-04-10T14:01:13.372Z,22.24
2019-04-10T14:03:43.810Z,23.10
2019-04-10T14:06:12.193Z,21.71
2019-04-10T14:09:01.877Z,21.06
2019-04-10T14:11:13.215Z,23.44
2019-04-10T14:13:42.137Z,24.25
2019-04-10T14:16:10.865Z,22.56
2019-04-10T14:18:39.434Z,21.89
2019-04-10T14:21:12.869Z,29.77
2019-04-10T14:23:39.538Z,32.33
2019-04-10T14:26:24.667Z,32.44
2019-04-10T14:28:53.564Z,31.09
2019-04-10T14:31:26.693Z,31.00
2019-04-10T14:33:56.287Z,32.96
2019-04-10T14:36:25.244Z,35.65
2019-04-10T14:38:55.017Z,35.75
2019-04-10T14:41:24.828Z,37.42
2019-04-10T14:43:54.237Z,37.51
2019-04-10T14:46:24.164Z,38.03
2019-04-10T14:48:52.737Z,37.33
2019-04-10T14:51:21.995Z,36.41
2019-04-10T14:53:51.139Z,36.67
2019-04-10T14:56:19.914Z,36.97
2019-04-10T14:58:48.695Z,37.39
2019-04-10T15:01:17.817Z,37.21
2019-04-10T15:03:46.689Z,38.25
2019-04-10T15:06:15.675Z,38.47
2019-04-10T15:08:44.121Z,38.37
2019-04-10T15:11:13.937Z,38.18
2019-04-10T15:13:42.595Z,38.02
2019-04-10T15:16:11.248Z,37.43
2019-04-10T15:18:39.696Z,38.37
2019-04-10T15:21:08.309Z,38.44
2019-04-10T15:23:36.769Z,38.41
2019-04-10T15:26:05.996Z,39.50
2019-04-10T15:28:35.953Z,39.15
2019-04-10T15:31:05.159Z,39.03
2019-04-10T15:33:33.610Z,39.33
2019-04-10T15:36:02.090Z,39.46
2019-04-10T15:38:30.760Z,39.02
2019-04-10T15:40:59.367Z,38.99
2019-04-10T15:43:29.349Z,38.73
2019-04-10T15:45:58.141Z,37.86
2019-04-10T15:48:27.181Z,38.20
2019-04-10T15:50:55.986Z,38.31
2019-04-10T15:53:24.513Z,37.76
2019-04-10T15:55:53.719Z,37.32
2019-04-10T15:58:23.449Z,37.32
2019-04-10T16:00:52.162Z,38.10
2019-04-10T16:03:21.742Z,39.33
2019-04-10T16:05:50.463Z,40.64
2019-04-10T16:08:20.441Z,40.85
2019-04-10T16:10:50.854Z,41.06
2019-04-10T16:13:22.012Z,40.78
2019-04-10T16:15:50.653Z,41.21
2019-04-10T16:18:23.513Z,40.81
2019-04-10T16:20:54.899Z,41.31
2019-04-10T16:23:40.382Z,41.66
2019-04-10T16:26:09.638Z,41.67
2019-04-10T16:28:38.161Z,40.73
2019-04-10T16:31:07.559Z,40.55
2019-04-10T16:33:36.115Z,41.55
2019-04-10T16:36:05.264Z,41.63
2019-04-10T16:38:33.864Z,41.51
2019-04-10T16:41:02.783Z,41.43
2019-04-10T16:43:32.643Z,40.53
2019-04-10T16:46:02.892Z,40.54
2019-04-10T16:48:31.594Z,39.65
2019-04-10T16:51:00.300Z,39.77
2019-04-10T16:53:29.842Z,39.59
2019-04-10T16:55:59.051Z,39.41
2019-04-10T16:58:27.651Z,39.62
2019-04-10T17:00:56.231Z,39.68
2019-04-10T17:03:25.367Z,40.34
2019-04-10T17:05:54.011Z,40.26
2019-04-10T17:08:23.665Z,40.78
2019-04-10T17:10:52.541Z,41.52
2019-04-10T17:13:21.009Z,41.24
2019-04-10T17:15:50.321Z,41.37
2019-04-10T17:18:21.153Z,41.37
2019-04-10T17:20:51.001Z,41.57
2019-04-10T17:23:20.544Z,41.77
2019-04-10T17:25:50.665Z,41.93
2019-04-10T17:28:22.000Z,41.48
2019-04-10T17:30:49.758Z,41.34
2019-04-10T17:33:18.675Z,41.58
2019-04-10T17:35:47.586Z,41.85
2019-04-10T17:38:16.337Z,41.53
2019-04-10T17:40:50.514Z,41.23
2019-04-10T17:43:15.203Z,41.52
2019-04-10T17:45:44.861Z,41.73
2019-04-10T17:48:13.770Z,41.23
2019-04-10T17:50:43.560Z,41.61
2019-04-10T17:53:13.536Z,42.27
2019-04-10T17:55:42.600Z,41.92
2019-04-10T17:58:11.609Z,41.56
2019-04-10T18:00:43.236Z,41.48
2019-04-10T18:03:13.254Z,42.25
2019-04-10T18:05:42.591Z,42.26
2019-04-10T18:08:12.396Z,42.71
2019-04-10T18:10:48.699Z,42.97
2019-04-10T18:13:11.543Z,43.19
2019-04-10T18:15:40.374Z,43.80
2019-04-10T18:18:08.819Z,43.81
2019-04-10T18:20:37.397Z,43.74
2019-04-10T18:23:07.034Z,43.34
2019-04-10T18:25:36.163Z,43.28
2019-04-10T18:28:05.515Z,42.89
2019-04-10T18:30:35.531Z,42.91
2019-04-10T18:33:05.133Z,43.19
2019-04-10T18:35:35.267Z,42.46
2019-04-10T18:38:04.000Z,42.09
2019-04-10T18:40:32.606Z,42.73
2019-04-10T18:43:02.292Z,43.08
2019-04-10T18:45:31.211Z,42.54
2019-04-10T18:48:00.599Z,42.56
2019-04-10T18:50:29.286Z,44.42
2019-04-10T18:52:58.124Z,43.79
2019-04-10T18:55:26.595Z,44.25
2019-04-10T18:57:55.125Z,42.92
2019-04-10T19:00:37.126Z,43.30
2019-04-10T19:03:13.074Z,43.04
2019-04-10T19:05:48.921Z,43.99
2019-04-10T19:08:17.708Z,43.76
2019-04-10T19:10:47.345Z,43.80
2019-04-10T19:13:17.177Z,43.94
2019-04-10T19:15:46.967Z,44.31
2019-04-10T19:18:15.632Z,44.85
2019-04-10T19:20:44.265Z,44.54
2019-04-10T19:23:13.066Z,44.68
2019-04-10T19:25:43.382Z,44.59
2019-04-10T19:28:12.821Z,45.70
2019-04-10T19:30:43.537Z,45.85
2019-04-10T19:33:12.618Z,46.07
2019-04-10T19:35:41.437Z,46.73
2019-04-10T19:38:11.351Z,46.59
2019-04-10T19:40:40.451Z,47.06
2019-04-10T19:43:10.244Z,47.66
2019-04-10T19:45:39.752Z,48.43
2019-04-10T19:48:08.977Z,48.10
2019-04-10T19:50:37.658Z,48.60
2019-04-10T19:53:06.348Z,49.66
2019-04-10T19:55:35.923Z,49.82
2019-04-10T19:58:05.848Z,49.33
2019-04-10T20:00:36.776Z,49.01
2019-04-10T20:03:05.765Z,49.00
2019-04-10T20:05:34.261Z,49.13
2019-04-10T20:08:02.914Z,49.82
2019-04-10T20:10:31.370Z,49.98
2019-04-10T20:12:59.898Z,50.70
2019-04-10T20:15:28.841Z,50.33
2019-04-10T20:17:58.222Z,50.17
2019-04-10T20:20:27.115Z,50.87
2019-04-10T20:22:56.271Z,51.02
2019-04-10T20:25:26.123Z,51.44
2019-04-10T20:27:54.867Z,51.06
2019-04-10T20:30:25.828Z,52.32
2019-04-10T20:32:54.501Z,53.09
2019-04-10T20:35:25.052Z,52.01
2019-04-10T20:37:53.403Z,52.55
2019-04-10T20:40:22.158Z,52.52
2019-04-10T20:42:50.951Z,52.36
2019-04-10T20:45:21.049Z,52.55
2019-04-10T20:47:49.816Z,52.63
2019-04-10T20:50:18.267Z,52.66
2019-04-10T20:52:47.311Z,53.67
2019-04-10T20:55:15.838Z,53.88
2019-04-10T20:57:44.417Z,54.36
2019-04-10T21:00:18.213Z,53.69
2019-04-10T21:02:49.091Z,54.47
2019-04-10T21:05:18.063Z,54.52
2019-04-10T21:07:46.609Z,53.03
2019-04-10T21:10:15.099Z,53.04
2019-04-10T21:12:44.144Z,53.11
2019-04-10T21:15:13.212Z,53.78
2019-04-10T21:17:42.464Z,53.11
2019-04-10T21:20:13.207Z,52.99
2019-04-10T21:22:41.553Z,52.99
2019-04-10T21:25:10.316Z,53.34
2019-04-10T21:27:39.744Z,53.76
2019-04-10T21:30:26.361Z,53.66
2019-04-10T21:33:00.268Z,53.23
2019-04-10T21:35:37.123Z,53.83
2019-04-10T21:38:06.737Z,54.09
2019-04-10T21:40:35.410Z,53.65
2019-04-10T21:43:04.302Z,53.94
2019-04-10T21:45:35.025Z,53.82
2019-04-10T21:48:03.551Z,53.95
2019-04-10T21:50:32.006Z,54.71
2019-04-10T21:53:00.585Z,54.56
2019-04-10T21:55:29.187Z,54.77
2019-04-10T21:57:57.817Z,54.87
2019-04-10T22:00:45.156Z,54.68
2019-04-10T22:03:13.668Z,54.97
2019-04-10T22:05:44.536Z,54.71
2019-04-10T22:08:14.892Z,55.07
2019-04-10T22:10:45.073Z,54.98
2019-04-10T22:13:13.617Z,54.79
2019-04-10T22:15:44.816Z,54.87
2019-04-10T22:18:14.774Z,55.16
2019-04-10T22:20:43.764Z,54.30
2019-04-10T22:23:12.717Z,54.55
2019-04-10T22:25:41.169Z,54.50
2019-04-10T22:28:09.764Z,54.05
2019-04-10T22:30:38.282Z,54.30
2019-04-10T22:33:07.656Z,54.34
2019-04-10T22:35:36.202Z,54.05
2019-04-10T22:38:04.729Z,53.95
2019-04-10T22:40:33.388Z,54.77
2019-04-10T22:43:01.909Z,53.87
2019-04-10T22:45:31.709Z,54.16
2019-04-10T22:48:01.218Z,53.75
2019-04-10T22:50:30.844Z,54.15
2019-04-10T22:52:59.597Z,53.51
2019-04-10T22:55:28.221Z,53.53
2019-04-10T22:57:56.942Z,54.01
2019-04-10T23:00:28.004Z,53.69
2019-04-10T23:02:57.273Z,53.54
2019-04-10T23:05:26.775Z,53.26
2019-04-10T23:07:55.598Z,53.97
2019-04-10T23:10:24.750Z,53.07
2019-04-10T23:12:59.974Z,52.65
2019-04-10T23:15:25.129Z,53.44
2019-04-10T23:17:53.877Z,53.03
2019-04-10T23:20:22.466Z,53.09
2019-04-10T23:22:50.957Z,53.12
2019-04-10T23:25:20.495Z,53.77
2019-04-10T23:27:51.996Z,54.39
2019-04-10T23:30:19.923Z,54.81
2019-04-10T23:32:48.963Z,55.24
2019-04-10T23:35:17.541Z,54.64
2019-04-10T23:37:46.921Z,55.18
2019-04-10T23:40:16.861Z,54.70
2019-04-10T23:42:46.356Z,55.61
2019-04-10T23:45:15.613Z,55.61
2019-04-10T23:47:44.480Z,55.62
2019-04-10T23:50:15.026Z,55.59
2019-04-10T23:52:44.350Z,55.69
2019-04-10T23:55:13.636Z,56.56
2019-04-10T23:57:43.310Z,57.41
